Time;durP1;ratioP1;P1;durP2;ratioP2;P2;SDS_P1;SDS_P2;PMS_P1;PMS_P2;Temp;Humidity;BMP_temperature;BMP_pressure;BME280_temperature;BME280_humidity;BME280_pressure;Samples;Min_cycle;Max_cycle;Signal;HPM_P1;HPM_P2
2022/07/15 00:01:03;;;;;;;3.95;2.10;;;28.30;37.10;;;;;;7411237;19;20007;-92
2022/07/15 00:03:32;;;;;;;7.47;2.33;;;28.20;37.30;;;;;;7386576;19;20317;-92
2022/07/15 00:06:00;;;;;;;9.27;2.20;;;28.20;37.30;;;;;;7404208;19;20022;-92
2022/07/15 00:08:29;;;;;;;9.48;2.78;;;28.30;37.40;;;;;;7410985;19;20012;-93
2022/07/15 00:11:01;;;;;;;12.13;2.13;;;28.30;37.40;;;;;;7406911;19;20010;-93
2022/07/15 00:13:31;;;;;;;5.05;2.30;;;28.20;37.30;;;;;;7377708;19;20295;-91
2022/07/15 00:16:00;;;;;;;6.78;2.17;;;28.20;37.40;;;;;;7422002;19;20011;-92
2022/07/15 00:18:28;;;;;;;9.73;2.30;;;28.10;37.50;;;;;;7402187;19;20011;-92
2022/07/15 00:20:57;;;;;;;8.82;2.22;;;28.10;37.70;;;;;;7397876;19;20058;-91
2022/07/15 00:23:26;;;;;;;11.75;2.60;;;28.10;37.90;;;;;;7388344;19;20044;-92
2022/07/15 00:25:55;;;;;;;8.43;2.85;;;28.10;37.90;;;;;;7392217;19;20018;-92
2022/07/15 00:28:28;;;;;;;10.15;2.40;;;28.00;38.10;;;;;;7408443;19;20010;-91
2022/07/15 00:30:57;;;;;;;5.32;2.63;;;27.90;38.00;;;;;;7385650;19;20046;-92
2022/07/15 00:33:26;;;;;;;7.78;2.50;;;27.90;38.10;;;;;;7383365;19;20086;-92
2022/07/15 00:35:55;;;;;;;10.82;2.40;;;27.90;38.20;;;;;;7383857;19;20011;-91
2022/07/15 00:38:24;;;;;;;8.68;2.72;;;27.80;38.30;;;;;;7385116;19;20031;-92
2022/07/15 00:40:53;;;;;;;16.52;2.60;;;27.80;38.40;;;;;;7382468;19;20010;-92
2022/07/15 00:43:22;;;;;;;6.43;2.33;;;27.80;38.50;;;;;;7422436;19;20028;-93
2022/07/15 00:45:54;;;;;;;4.70;2.60;;;27.80;38.60;;;;;;7405512;19;20018;-93
2022/07/15 00:48:23;;;;;;;8.52;2.58;;;27.70;38.70;;;;;;7401641;19;20006;-92
2022/07/15 00:50:52;;;;;;;6.07;2.83;;;27.60;38.80;;;;;;7387185;19;20442;-91
2022/07/15 00:53:23;;;;;;;7.25;2.97;;;27.60;38.90;;;;;;7379645;19;20023;-91
2022/07/15 00:55:55;;;;;;;9.90;2.92;;;27.60;38.80;;;;;;7378689;19;20031;-91
2022/07/15 00:58:26;;;;;;;10.93;2.80;;;27.60;38.80;;;;;;7407109;19;20039;-91
2022/07/15 01:01:00;;;;;;;11.63;3.00;;;27.50;38.90;;;;;;7381240;19;20023;-92
2022/07/15 01:03:30;;;;;;;10.60;2.60;;;27.50;39.30;;;;;;7379286;19;20025;-91
2022/07/15 01:06:01;;;;;;;6.00;2.47;;;27.40;39.10;;;;;;7381059;19;20014;-90
2022/07/15 01:08:29;;;;;;;13.05;2.85;;;27.40;39.20;;;;;;7381257;19;20014;-90
2022/07/15 01:10:58;;;;;;;10.25;2.45;;;27.40;39.20;;;;;;7382574;19;20068;-90
2022/07/15 01:13:27;;;;;;;12.65;3.00;;;27.40;39.30;;;;;;7403751;19;20034;-90
2022/07/15 01:15:59;;;;;;;15.40;3.08;;;27.30;39.30;;;;;;7377766;19;20018;-90
2022/07/15 01:18:28;;;;;;;9.07;2.80;;;27.20;39.40;;;;;;7382794;19;20058;-90
2022/07/15 01:20:59;;;;;;;7.93;3.13;;;27.20;39.50;;;;;;7388041;19;20021;-90
2022/07/15 01:23:31;;;;;;;10.32;4.00;;;27.20;39.60;;;;;;7380939;19;20021;-90
2022/07/15 01:26:00;;;;;;;11.55;4.07;;;27.20;39.60;;;;;;7383831;19;20018;-90
2022/07/15 01:28:29;;;;;;;15.73;4.45;;;27.10;39.60;;;;;;7391378;19;20437;-90
2022/07/15 01:30:58;;;;;;;8.90;3.78;;;27.00;39.70;;;;;;7405725;19;20022;-90
2022/07/15 01:33:27;;;;;;;7.60;3.90;;;27.00;39.80;;;;;;7379954;19;20047;-90
2022/07/15 01:35:59;;;;;;;7.45;3.45;;;27.10;39.90;;;;;;7385641;19;20014;-91
2022/07/15 01:38:29;;;;;;;8.18;3.17;;;27.00;39.90;;;;;;7382159;19;20027;-91
2022/07/15 01:40:58;;;;;;;5.15;3.20;;;27.00;39.90;;;;;;7391558;19;20014;-90
2022/07/15 01:43:27;;;;;;;7.47;3.80;;;27.10;39.90;;;;;;7417466;19;20039;-91
2022/07/15 01:45:55;;;;;;;7.40;3.05;;;26.90;39.90;;;;;;7393331;19;20011;-91
2022/07/15 01:51:08;;;;;;;9.23;3.08;;;27.00;40.00;;;;;;7387865;19;20022;-90
2022/07/15 01:53:37;;;;;;;5.65;2.72;;;27.00;40.10;;;;;;7385064;19;20480;-91
2022/07/15 01:56:07;;;;;;;15.48;3.08;;;26.90;40.00;;;;;;7385578;19;20120;-90
2022/07/15 01:58:36;;;;;;;5.57;2.83;;;26.80;40.00;;;;;;7383770;19;20449;-90
2022/07/15 02:01:05;;;;;;;12.60;3.20;;;26.70;40.10;;;;;;7405717;19;20441;-90
2022/07/15 02:03:34;;;;;;;8.88;3.15;;;26.70;40.20;;;;;;7390291;19;20014;-91
2022/07/15 02:06:03;;;;;;;8.80;2.67;;;26.60;40.10;;;;;;7392823;19;20015;-90
2022/07/15 02:08:34;;;;;;;7.40;2.78;;;26.50;40.10;;;;;;7385949;19;20015;-90
2022/07/15 02:11:03;;;;;;;6.10;2.72;;;26.50;40.10;;;;;;7385388;19;20038;-90
2022/07/15 02:13:32;;;;;;;7.65;2.20;;;26.40;39.90;;;;;;7384530;19;20014;-90
2022/07/15 02:16:01;;;;;;;4.95;2.33;;;26.50;39.90;;;;;;7407408;19;20035;-90
2022/07/15 02:18:30;;;;;;;3.80;1.95;;;26.50;39.80;;;;;;7390227;19;20015;-90
2022/07/15 02:20:59;;;;;;;6.57;2.30;;;26.50;39.70;;;;;;7388074;19;20464;-90
2022/07/15 02:23:28;;;;;;;8.27;2.45;;;26.50;39.60;;;;;;7388307;19;20010;-90
2022/07/15 02:26:00;;;;;;;7.43;2.08;;;26.40;39.00;;;;;;7393566;19;20006;-91
2022/07/15 02:28:31;;;;;;;7.18;2.05;;;26.40;39.00;;;;;;7404220;19;20014;-92
2022/07/15 02:31:00;;;;;;;6.32;2.13;;;26.40;38.90;;;;;;7424726;19;20010;-91
2022/07/15 02:33:29;;;;;;;6.40;2.10;;;26.50;38.90;;;;;;7402115;19;20014;-92
2022/07/15 02:35:58;;;;;;;6.30;2.30;;;26.50;38.90;;;;;;7404556;19;20035;-92
2022/07/15 02:38:27;;;;;;;5.45;1.98;;;26.40;38.70;;;;;;7404571;19;20013;-92
2022/07/15 02:40:56;;;;;;;7.55;2.35;;;26.40;38.80;;;;;;7405583;19;20011;-92
2022/07/15 02:43:27;;;;;;;4.50;2.15;;;26.30;38.80;;;;;;7415679;19;20555;-92
2022/07/15 02:45:56;;;;;;;2.78;1.90;;;26.30;38.70;;;;;;7392846;19;20046;-92
2022/07/15 02:48:25;;;;;;;5.40;2.08;;;26.30;38.70;;;;;;7394078;19;20337;-91
2022/07/15 02:50:54;;;;;;;4.50;2.17;;;26.30;38.80;;;;;;7386915;19;20007;-90
2022/07/15 02:53:28;;;;;;;4.25;2.17;;;26.30;38.80;;;;;;7378583;19;20489;-90
2022/07/15 02:55:58;;;;;;;6.13;2.20;;;26.30;38.80;;;;;;7377864;19;20050;-90
2022/07/15 02:58:30;;;;;;;5.93;2.00;;;26.30;38.80;;;;;;7397934;19;20018;-90
2022/07/15 03:00:59;;;;;;;4.47;2.00;;;26.30;38.70;;;;;;7378345;19;20015;-90
2022/07/15 03:03:29;;;;;;;3.83;2.10;;;26.20;38.60;;;;;;7378116;19;20124;-90
2022/07/15 03:05:59;;;;;;;7.50;2.05;;;26.20;38.70;;;;;;7389564;19;20010;-92
2022/07/15 03:08:28;;;;;;;6.03;1.88;;;26.10;38.60;;;;;;7390553;19;20018;-91
2022/07/15 03:10:57;;;;;;;3.80;1.90;;;26.10;38.80;;;;;;7388906;19;20026;-91
2022/07/15 03:13:29;;;;;;;5.75;1.92;;;26.10;38.60;;;;;;7416015;19;20014;-91
2022/07/15 03:15:58;;;;;;;6.05;2.10;;;26.20;38.60;;;;;;7402833;19;20014;-91
2022/07/15 03:18:26;;;;;;;5.95;2.22;;;26.10;38.60;;;;;;7403241;19;20022;-91
2022/07/15 03:20:55;;;;;;;2.53;2.03;;;26.10;38.80;;;;;;7398192;19;20010;-90
2022/07/15 03:23:24;;;;;;;3.95;1.80;;;26.10;38.80;;;;;;7393055;19;20668;-90
2022/07/15 03:25:53;;;;;;;5.35;1.83;;;26.10;38.90;;;;;;7392473;19;20014;-90
2022/07/15 03:28:21;;;;;;;12.02;2.20;;;26.10;39.00;;;;;;7427581;19;20034;-92
2022/07/15 03:30:53;;;;;;;9.30;2.50;;;26.00;39.10;;;;;;7408501;19;20014;-91
2022/07/15 03:33:22;;;;;;;4.05;1.95;;;26.00;39.40;;;;;;7406827;19;20025;-91
2022/07/15 03:35:51;;;;;;;4.57;1.92;;;25.90;39.30;;;;;;7395944;19;20042;-92
2022/07/15 03:38:19;;;;;;;9.20;1.83;;;25.90;39.20;;;;;;7393020;19;20018;-91
2022/07/15 03:40:48;;;;;;;4.45;1.90;;;25.90;39.40;;;;;;7398664;19;20077;-92
2022/07/15 03:43:17;;;;;;;6.57;1.83;;;25.90;39.40;;;;;;7425711;19;20030;-91
2022/07/15 03:45:46;;;;;;;6.18;1.80;;;25.90;39.50;;;;;;7409216;19;20014;-92
2022/07/15 03:48:18;;;;;;;4.57;1.80;;;25.80;39.20;;;;;;7409453;19;20014;-92
2022/07/15 03:50:46;;;;;;;9.00;2.05;;;25.70;39.20;;;;;;7408503;19;20014;-92
2022/07/15 03:53:15;;;;;;;5.03;1.83;;;25.70;39.30;;;;;;7406707;19;20003;-92
2022/07/15 03:55:44;;;;;;;6.93;1.90;;;25.70;39.40;;;;;;7405237;19;20018;-93
2022/07/15 03:58:13;;;;;;;6.97;1.88;;;25.70;39.60;;;;;;7422331;19;20031;-91
2022/07/15 04:00:42;;;;;;;4.35;2.20;;;25.70;39.50;;;;;;7404834;19;20038;-92
2022/07/15 04:03:11;;;;;;;8.15;2.15;;;25.70;39.30;;;;;;7410648;19;20018;-92
2022/07/15 04:05:42;;;;;;;4.85;1.60;;;25.60;39.20;;;;;;7409612;19;20015;-91
2022/07/15 04:08:12;;;;;;;5.97;2.00;;;25.60;39.30;;;;;;7408511;19;20010;-92
2022/07/15 04:10:40;;;;;;;5.78;2.40;;;25.70;39.20;;;;;;7400383;19;20066;-89
2022/07/15 04:13:09;;;;;;;6.07;2.22;;;25.70;39.30;;;;;;7412770;19;20363;-90
2022/07/15 04:15:38;;;;;;;4.32;2.03;;;25.70;39.20;;;;;;7398253;19;20003;-90
2022/07/15 04:18:07;;;;;;;5.55;2.28;;;25.70;39.10;;;;;;7392394;19;20015;-91
2022/07/15 04:20:36;;;;;;;6.60;2.10;;;25.70;39.20;;;;;;7391510;19;20050;-91
2022/07/15 04:23:07;;;;;;;3.67;1.92;;;25.60;39.00;;;;;;7393318;19;20023;-91
2022/07/15 04:25:36;;;;;;;6.10;2.20;;;25.60;39.00;;;;;;7398276;19;20018;-92
2022/07/15 04:28:05;;;;;;;12.07;2.20;;;25.60;39.10;;;;;;7426033;19;20107;-93
2022/07/15 04:30:44;;;;;;;4.53;1.92;;;25.50;39.00;;;;;;7393476;19;20026;-92
2022/07/15 04:33:13;;;;;;;7.32;2.25;;;25.50;39.10;;;;;;7402266;19;20003;-92
2022/07/15 04:35:42;;;;;;;5.20;1.88;;;25.40;39.20;;;;;;7403166;19;20030;-92
2022/07/15 04:38:16;;;;;;;6.82;2.13;;;25.50;39.30;;;;;;7403609;19;20011;-92
2022/07/15 04:40:45;;;;;;;4.63;2.08;;;25.50;39.30;;;;;;7397329;19;20023;-91
2022/07/15 04:43:14;;;;;;;6.22;2.05;;;25.50;39.40;;;;;;7417991;19;20799;-92
2022/07/15 04:45:43;;;;;;;5.47;2.28;;;25.50;39.50;;;;;;7397914;19;20014;-91
2022/07/15 04:50:54;;;;;;;4.25;2.10;;;25.50;39.70;;;;;;7392479;19;20014;-91
2022/07/15 04:53:26;;;;;;;6.07;2.55;;;25.40;39.90;;;;;;7392368;19;20011;-91
2022/07/15 04:55:55;;;;;;;5.35;2.30;;;25.40;40.00;;;;;;7389573;19;20022;-91
2022/07/15 04:58:24;;;;;;;7.05;2.50;;;25.30;40.20;;;;;;7413797;19;20026;-91
2022/07/15 05:00:52;;;;;;;5.95;2.70;;;25.30;40.30;;;;;;7384047;19;20027;-91
2022/07/15 05:03:21;;;;;;;5.78;2.55;;;25.20;41.10;;;;;;7385682;19;20039;-91
2022/07/15 05:05:50;;;;;;;5.82;2.50;;;25.20;40.60;;;;;;7386414;19;20027;-90
2022/07/15 05:08:20;;;;;;;11.10;2.88;;;25.20;40.70;;;;;;7385030;19;20015;-89
2022/07/15 05:10:51;;;;;;;6.80;2.45;;;25.20;40.90;;;;;;7383036;19;20048;-90
2022/07/15 05:13:20;;;;;;;4.25;2.47;;;25.20;40.90;;;;;;7412552;19;20007;-90
2022/07/15 05:15:49;;;;;;;8.52;2.80;;;25.10;40.90;;;;;;7390197;19;20022;-90
2022/07/15 05:18:18;;;;;;;7.03;2.50;;;25.10;41.20;;;;;;7391450;19;20046;-89
2022/07/15 05:20:47;;;;;;;8.63;2.55;;;25.10;41.30;;;;;;7387389;19;20014;-89
2022/07/15 05:23:16;;;;;;;10.15;2.78;;;25.10;41.30;;;;;;7382468;19;20441;-90
2022/07/15 05:25:45;;;;;;;5.35;2.50;;;25.00;41.30;;;;;;7382107;19;20022;-89
2022/07/15 05:28:17;;;;;;;8.55;2.70;;;25.10;41.40;;;;;;7403085;19;20320;-90
2022/07/15 05:30:46;;;;;;;8.38;2.80;;;25.10;41.50;;;;;;7378069;19;20086;-89
2022/07/15 05:33:17;;;;;;;6.95;2.67;;;25.10;41.50;;;;;;7391161;19;20011;-91
2022/07/15 05:35:46;;;;;;;6.50;3.25;;;24.90;41.50;;;;;;7400509;19;20018;-91
2022/07/15 05:38:15;;;;;;;6.03;2.63;;;24.90;41.80;;;;;;7394708;19;20011;-92
2022/07/15 05:40:44;;;;;;;9.35;2.72;;;25.00;41.90;;;;;;7405275;19;20006;-91
2022/07/15 05:43:15;;;;;;;6.43;2.80;;;25.00;41.80;;;;;;7426810;19;20039;-91
2022/07/15 05:45:44;;;;;;;10.00;2.70;;;24.90;41.80;;;;;;7404372;19;20022;-92
2022/07/15 05:48:13;;;;;;;7.38;2.47;;;24.90;42.10;;;;;;7403995;19;20010;-92
2022/07/15 05:58:22;;;;;;;7.72;2.88;;;24.80;41.90;;;;;;7387976;19;20035;-84
2022/07/15 06:00:52;;;;;;;8.27;2.80;;;24.70;42.20;;;;;;7388269;19;20025;-92
2022/07/15 06:05:56;;;;;;;5.53;2.40;;;24.80;42.60;;;;;;7251214;19;20014;-83
2022/07/15 06:08:25;;;;;;;7.15;3.15;;;24.90;42.40;;;;;;7410169;19;20002;-94
2022/07/15 06:10:54;;;;;;;9.68;2.78;;;25.00;42.30;;;;;;7411529;19;19995;-91
2022/07/15 06:13:25;;;;;;;4.80;2.67;;;24.90;42.50;;;;;;7430241;19;19998;-93
2022/07/15 06:15:54;;;;;;;6.82;3.10;;;24.90;42.60;;;;;;7372981;19;20206;-88
2022/07/15 06:18:23;;;;;;;6.82;3.10;;;25.00;42.50;;;;;;7394811;19;20018;-94
2022/07/15 06:20:52;;;;;;;6.30;2.95;;;25.00;42.50;;;;;;7376532;19;20042;-88
2022/07/15 06:23:21;;;;;;;8.20;2.80;;;25.10;42.50;;;;;;7367704;19;20006;-87
2022/07/15 06:25:49;;;;;;;9.73;2.60;;;25.10;42.50;;;;;;7408407;19;19992;-93
2022/07/15 06:28:18;;;;;;;6.35;2.60;;;25.10;42.40;;;;;;7421418;19;20015;-84
2022/07/15 06:30:51;;;;;;;8.53;3.00;;;25.20;42.50;;;;;;7265412;19;20022;-89
2022/07/15 06:35:54;;;;;;;8.02;3.15;;;25.20;42.30;;;;;;7311050;19;20023;-91
2022/07/15 06:41:05;;;;;;;9.18;2.60;;;25.30;42.30;;;;;;7326527;19;20006;-94
2022/07/15 06:43:34;;;;;;;8.43;2.90;;;25.30;42.20;;;;;;7373586;19;20024;-92
2022/07/15 06:48:38;;;;;;;8.65;2.80;;;25.40;41.90;;;;;;7274187;19;20045;-88
2022/07/15 06:51:07;;;;;;;6.43;2.30;;;25.40;41.80;;;;;;7338800;19;20019;-92
2022/07/15 06:53:36;;;;;;;8.70;2.80;;;25.50;41.60;;;;;;7400488;19;20003;-92
2022/07/15 06:56:05;;;;;;;7.55;2.47;;;25.60;41.60;;;;;;7398212;19;20018;-92
2022/07/15 06:58:34;;;;;;;8.18;2.67;;;25.60;41.60;;;;;;7397123;19;20015;-91
2022/07/15 07:01:03;;;;;;;8.30;2.85;;;25.50;41.50;;;;;;7417387;19;20076;-90
2022/07/15 07:03:32;;;;;;;6.45;2.88;;;25.50;41.50;;;;;;7397186;19;20090;-92
2022/07/15 07:06:05;;;;;;;8.90;2.72;;;25.50;41.40;;;;;;7396310;19;20010;-91
2022/07/15 07:08:35;;;;;;;7.03;3.17;;;25.50;41.40;;;;;;7403605;19;20006;-91
2022/07/15 07:11:03;;;;;;;6.40;2.58;;;25.60;41.20;;;;;;7403202;19;20011;-92
2022/07/15 07:13:32;;;;;;;11.77;3.03;;;25.60;41.10;;;;;;7399220;19;20028;-91
2022/07/15 07:16:01;;;;;;;6.40;2.92;;;25.60;41.30;;;;;;7422725;19;20021;-91
2022/07/15 07:18:30;;;;;;;14.95;3.03;;;25.70;41.40;;;;;;7398059;19;20015;-92
2022/07/15 07:20:59;;;;;;;8.60;2.85;;;25.70;41.40;;;;;;7401909;19;20050;-92
2022/07/15 07:23:31;;;;;;;5.70;2.38;;;25.70;41.30;;;;;;7403454;19;20046;-92
2022/07/15 07:26:00;;;;;;;9.02;2.70;;;25.70;41.40;;;;;;7404877;19;20047;-91
2022/07/15 07:28:29;;;;;;;10.40;2.58;;;25.80;40.90;;;;;;7406808;19;20046;-91
2022/07/15 07:30:58;;;;;;;5.00;2.70;;;25.80;40.80;;;;;;7430702;19;20011;-92
2022/07/15 07:33:26;;;;;;;9.88;2.55;;;25.80;40.30;;;;;;7411735;19;20010;-92
2022/07/15 07:35:55;;;;;;;6.13;2.40;;;25.80;40.00;;;;;;7407496;19;20013;-91
2022/07/15 07:38:24;;;;;;;7.78;2.28;;;25.80;40.00;;;;;;7408706;19;20018;-91
2022/07/15 07:40:55;;;;;;;10.95;2.95;;;25.80;40.00;;;;;;7408130;19;20017;-92
2022/07/15 07:43:24;;;;;;;7.10;2.15;;;25.80;39.90;;;;;;7435176;19;20003;-91
2022/07/15 07:45:53;;;;;;;4.45;2.20;;;25.80;40.00;;;;;;7402916;19;20462;-90
2022/07/15 07:48:22;;;;;;;6.32;2.10;;;25.80;40.40;;;;;;7411343;19;20014;-91
2022/07/15 07:50:51;;;;;;;5.50;1.92;;;25.90;39.60;;;;;;7409711;19;20123;-91
2022/07/15 07:53:20;;;;;;;4.38;2.08;;;25.90;39.20;;;;;;7402441;19;20059;-90
2022/07/15 07:55:49;;;;;;;7.45;2.08;;;26.00;39.00;;;;;;7402755;19;19988;-83
2022/07/15 08:03:45;;;;;;;5.90;2.50;;;26.10;38.50;;;;;;7370838;19;20006;-93
2022/07/15 08:08:51;;;;;;;8.00;2.00;;;26.10;38.60;;;;;;7325077;19;20021;-92
2022/07/15 08:11:20;;;;;;;10.88;2.42;;;26.10;38.60;;;;;;7408041;19;20014;-92
2022/07/15 08:13:53;;;;;;;3.78;2.00;;;26.10;38.60;;;;;;7366816;19;19988;-88
2022/07/15 08:16:27;;;;;;;6.43;2.20;;;26.10;38.20;;;;;;7405629;19;20035;-86
2022/07/15 09:52:50;;;;;;;3.72;2.15;;;26.30;36.10;;;;;;7397687;19;20030;-79
2022/07/15 09:55:20;;;;;;;9.93;2.60;;;26.40;36.60;;;;;;7371560;19;20505;-80
2022/07/15 09:57:49;;;;;;;11.38;2.70;;;26.50;36.10;;;;;;7368199;19;20034;-79
2022/07/15 10:00:17;;;;;;;5.20;2.08;;;26.60;36.00;;;;;;7371713;19;20031;-81
2022/07/15 10:02:47;;;;;;;6.65;2.00;;;26.70;36.00;;;;;;7371974;19;20018;-78
2022/07/15 10:05:16;;;;;;;9.07;2.20;;;26.70;35.70;;;;;;7371906;19;20325;-78
2022/07/15 10:07:46;;;;;;;11.05;2.17;;;26.80;35.60;;;;;;7370482;19;20027;-78
2022/07/15 10:10:18;;;;;;;8.00;2.33;;;26.60;34.20;;;;;;7393617;19;20022;-78
2022/07/15 10:12:57;;;;;;;10.48;1.60;;;26.60;35.20;;;;;;7370059;19;20038;-77
2022/07/15 10:15:43;;;;;;;6.75;1.48;;;26.50;34.10;;;;;;7369215;19;20022;-80
2022/07/15 10:18:28;;;;;;;5.65;1.60;;;26.20;33.40;;;;;;7362790;19;20394;-78
2022/07/15 10:21:19;;;;;;;4.45;1.25;;;26.20;33.60;;;;;;7374932;19;20053;-80
2022/07/15 10:24:05;;;;;;;6.40;1.80;;;26.20;34.20;;;;;;7372775;19;20018;-79
2022/07/15 10:26:50;;;;;;;4.53;1.35;;;26.10;33.80;;;;;;7372284;19;20022;-78
2022/07/15 10:29:20;;;;;;;4.40;1.40;;;26.00;33.80;;;;;;7371959;19;20345;-79
2022/07/15 10:31:59;;;;;;;4.82;1.60;;;25.90;34.20;;;;;;7370844;19;20014;-79
2022/07/15 10:34:32;;;;;;;4.20;1.27;;;25.90;33.80;;;;;;7370201;19;20011;-80
2022/07/15 10:37:06;;;;;;;2.65;1.02;;;26.10;33.20;;;;;;7392689;19;20113;-78
2022/07/15 10:40:06;;;;;;;4.57;1.40;;;26.40;33.50;;;;;;7367676;19;20015;-78
2022/07/15 10:43:04;;;;;;;7.53;1.40;;;26.40;32.80;;;;;;7367810;19;20025;-80
2022/07/15 10:45:33;;;;;;;3.97;1.20;;;26.50;32.30;;;;;;7368080;19;20014;-82
2022/07/15 10:48:30;;;;;;;31.88;20.10;;;26.70;31.80;;;;;;7370851;19;20788;-79
2022/07/15 10:50:59;;;;;;;6.57;4.57;;;26.60;32.60;;;;;;7368801;19;20426;-79
2022/07/15 10:53:29;;;;;;;6.28;2.20;;;26.60;31.80;;;;;;7372604;19;20020;-78
2022/07/15 10:56:18;;;;;;;5.47;2.20;;;26.70;31.50;;;;;;7367945;19;20014;-79
2022/07/15 10:59:13;;;;;;;5.00;1.70;;;26.80;31.40;;;;;;7368659;19;20110;-79
2022/07/15 11:01:43;;;;;;;8.73;2.55;;;26.90;31.40;;;;;;7366268;19;20383;-77
2022/07/15 11:04:15;;;;;;;4.33;1.23;;;27.20;32.10;;;;;;7358625;19;20014;-77
2022/07/15 11:07:14;;;;;;;3.80;1.40;;;27.30;31.40;;;;;;7393213;19;20441;-77
2022/07/15 11:09:48;;;;;;;2.13;1.20;;;27.40;31.00;;;;;;7380308;19;20003;-77
2022/07/15 11:12:17;;;;;;;3.72;1.80;;;27.60;30.90;;;;;;7381463;19;20007;-76
2022/07/15 11:14:54;;;;;;;1.55;1.02;;;27.70;30.50;;;;;;7378586;19;20015;-78
2022/07/15 11:17:27;;;;;;;2.70;1.45;;;27.80;30.10;;;;;;7373918;19;20089;-77
2022/07/15 11:19:58;;;;;;;5.40;1.23;;;27.90;29.80;;;;;;7371802;19;20014;-77
2022/07/15 11:22:29;;;;;;;2.90;1.38;;;27.90;30.00;;;;;;7370047;19;20564;-77
2022/07/15 11:24:58;;;;;;;;;;;27.90;30.50;;;;;;7391642;19;20022;-77
2022/07/15 11:27:30;;;;;;;3.08;1.38;;;28.10;30.50;;;;;;7367316;19;19918;-81
2022/07/15 11:30:04;;;;;;;3.65;1.63;;;28.20;30.00;;;;;;7370591;19;20353;-80
2022/07/15 11:32:35;;;;;;;4.25;1.27;;;28.20;30.00;;;;;;7367905;19;20035;-79
2022/07/15 11:35:05;;;;;;;2.22;1.05;;;28.30;30.00;;;;;;7371089;19;20527;-79
2022/07/15 11:37:39;;;;;;;1.73;1.10;;;28.30;29.70;;;;;;7370611;19;20027;-80
2022/07/15 11:44:29;;;;;;;3.17;1.00;;;28.40;29.20;;;;;;7390000;19;20023;-81
2022/07/15 11:45:58;;;;;;;3.38;1.27;;;28.30;29.60;;;;;;7371671;19;20011;-80
2022/07/15 11:48:36;;;;;;;1.77;1.10;;;28.20;29.70;;;;;;7370196;19;20046;-80
2022/07/15 11:51:25;;;;;;;1.75;1.33;;;28.20;28.50;;;;;;7370560;19;20018;-81
2022/07/15 11:53:56;;;;;;;1.10;0.90;;;27.60;28.30;;;;;;7368155;19;20015;-82
2022/07/15 11:56:31;;;;;;;3.28;1.05;;;27.60;29.20;;;;;;7368581;19;20453;-82
2022/07/15 11:59:01;;;;;;;2.80;1.00;;;27.60;29.70;;;;;;7369105;19;20081;-81
2022/07/15 12:01:33;;;;;;;1.83;1.10;;;27.70;29.60;;;;;;7376073;19;20041;-80
2022/07/15 12:04:02;;;;;;;2.25;1.00;;;27.70;29.30;;;;;;7397629;19;20057;-81
2022/07/15 12:06:32;;;;;;;5.10;1.40;;;27.90;29.00;;;;;;7378622;19;20018;-81
2022/07/15 12:09:03;;;;;;;2.45;1.00;;;27.80;29.00;;;;;;7375052;19;20015;-81
2022/07/15 12:11:33;;;;;;;2.92;1.23;;;27.80;29.20;;;;;;7378867;19;20021;-80
2022/07/15 12:14:04;;;;;;;1.55;1.00;;;28.00;29.60;;;;;;7374612;19;20047;-80
2022/07/15 12:16:37;;;;;;;7.60;1.10;;;28.00;29.10;;;;;;7368549;19;20011;-80
2022/07/15 12:19:09;;;;;;;5.53;1.38;;;28.10;29.60;;;;;;7398430;19;20078;-80
2022/07/15 12:21:40;;;;;;;3.60;1.10;;;28.20;29.60;;;;;;7378978;19;20073;-82
2022/07/15 12:24:12;;;;;;;11.15;1.30;;;28.30;29.40;;;;;;7378243;19;20084;-82
2022/07/15 12:26:44;;;;;;;1.70;1.13;;;28.40;29.40;;;;;;7375676;19;20018;-82
2022/07/15 12:29:14;;;;;;;2.97;1.48;;;28.50;28.60;;;;;;7356580;19;20022;-81
2022/07/15 12:31:54;;;;;;;2.83;1.33;;;28.60;29.00;;;;;;7369663;19;20018;-81
2022/07/15 12:34:25;;;;;;;3.20;1.40;;;28.60;28.60;;;;;;7397322;19;20018;-82
2022/07/15 12:36:59;;;;;;;4.88;1.70;;;28.70;28.30;;;;;;7376558;19;20365;-82
2022/07/15 12:39:29;;;;;;;5.13;1.08;;;28.80;28.10;;;;;;7368517;19;20026;-82
2022/07/15 12:42:03;;;;;;;1.30;0.90;;;28.80;27.30;;;;;;7372471;19;20082;-82
2022/07/15 12:44:34;;;;;;;2.53;1.20;;;28.90;27.80;;;;;;7349131;19;20383;-80
2022/07/15 12:47:06;;;;;;;;;;;28.90;27.90;;;;;;7375716;19;20405;-81
2022/07/15 12:49:49;;;;;;;2.42;1.00;;;29.10;27.80;;;;;;7366767;19;19916;-81
2022/07/15 12:52:27;;;;;;;4.07;1.17;;;29.00;27.60;;;;;;7373243;19;20496;-80
2022/07/15 12:54:58;;;;;;;4.10;1.10;;;29.00;27.60;;;;;;7396164;19;20031;-79
2022/07/15 12:57:33;;;;;;;5.30;1.10;;;29.10;28.00;;;;;;7375238;19;20014;-79
2022/07/15 13:00:06;;;;;;;5.38;0.98;;;29.20;28.00;;;;;;7375181;19;20034;-82
2022/07/15 13:03:01;;;;;;;3.42;0.95;;;29.10;27.80;;;;;;7372552;19;20014;-83
2022/07/15 13:05:33;;;;;;;2.05;1.20;;;29.10;27.90;;;;;;7374599;19;20019;-83
2022/07/15 13:08:03;;;;;;;2.65;1.00;;;29.20;27.30;;;;;;7380530;19;20109;-82
2022/07/15 13:10:33;;;;;;;2.65;1.27;;;29.20;27.30;;;;;;7381463;19;20072;-82
2022/07/15 13:13:02;;;;;;;7.03;1.35;;;29.30;27.70;;;;;;7395308;19;20021;-83
2022/07/15 13:15:31;;;;;;;2.25;1.30;;;29.20;27.80;;;;;;7374609;19;20032;-83
2022/07/15 13:18:03;;;;;;;6.68;1.20;;;29.10;28.00;;;;;;7375397;19;20011;-82
2022/07/15 13:20:32;;;;;;;7.32;1.10;;;29.20;27.80;;;;;;7372800;19;20019;-83
2022/07/15 13:23:02;;;;;;;5.50;1.10;;;29.00;27.90;;;;;;7369178;19;20019;-82
2022/07/15 13:25:32;;;;;;;3.75;1.10;;;29.10;28.10;;;;;;7376273;19;20018;-82
2022/07/15 13:28:01;;;;;;;1.45;1.00;;;29.20;28.20;;;;;;7396027;19;20047;-83
2022/07/15 13:30:30;;;;;;;0.90;0.90;;;29.20;27.60;;;;;;7368881;19;20466;-83
2022/07/15 13:33:01;;;;;;;4.90;1.17;;;29.30;27.90;;;;;;7373470;19;20039;-83
2022/07/15 13:35:30;;;;;;;7.13;1.20;;;29.50;27.20;;;;;;7374748;19;20085;-83
2022/07/15 13:38:00;;;;;;;2.15;1.10;;;29.50;27.50;;;;;;7373435;19;20010;-83
2022/07/15 13:40:28;;;;;;;3.05;1.13;;;29.50;26.90;;;;;;7399556;19;20018;-82
2022/07/15 13:42:57;;;;;;;9.77;1.52;;;29.50;26.70;;;;;;7374276;19;20018;-83
2022/07/15 13:45:26;;;;;;;2.10;1.10;;;29.60;26.50;;;;;;7373873;19;20319;-82
2022/07/15 13:47:55;;;;;;;6.40;1.48;;;29.60;26.70;;;;;;7374208;19;20034;-82
2022/07/15 13:53:08;;;;;;;4.55;1.15;;;29.70;26.70;;;;;;7397062;19;20043;-81
2022/07/15 13:55:39;;;;;;;3.05;1.23;;;29.80;26.90;;;;;;7407179;19;20031;-89
2022/07/15 13:58:07;;;;;;;;;;;29.80;26.90;;;;;;7405645;19;20114;-87
2022/07/15 14:00:39;;;;;;;7.72;1.00;;;29.90;27.30;;;;;;7399482;19;20350;-88
2022/07/15 14:03:09;;;;;;;5.15;1.17;;;30.00;26.70;;;;;;7406436;19;20015;-88
2022/07/15 14:05:40;;;;;;;3.08;1.30;;;30.10;26.80;;;;;;7405207;19;20031;-88
2022/07/15 14:08:09;;;;;;;3.65;1.15;;;30.20;26.60;;;;;;7405291;19;20019;-88
2022/07/15 14:10:38;;;;;;;2.72;1.13;;;30.20;26.50;;;;;;7404588;19;20437;-88
2022/07/15 14:13:07;;;;;;;4.28;1.40;;;30.20;26.30;;;;;;7400755;19;20007;-87
2022/07/15 14:15:36;;;;;;;2.30;1.20;;;30.20;26.30;;;;;;7402523;19;20019;-88
2022/07/15 14:18:05;;;;;;;2.05;1.20;;;30.10;26.30;;;;;;7402389;19;20018;-88
2022/07/15 14:20:34;;;;;;;1.77;1.15;;;30.00;26.50;;;;;;7401519;19;20014;-88
2022/07/15 14:23:05;;;;;;;4.72;1.05;;;30.00;26.20;;;;;;7402499;19;20027;-88
2022/07/15 14:25:34;;;;;;;2.28;0.90;;;30.00;26.40;;;;;;7404457;19;20018;-88
2022/07/15 14:28:03;;;;;;;1.52;1.17;;;30.00;26.40;;;;;;7408014;19;20014;-88
2022/07/15 14:30:31;;;;;;;3.40;1.25;;;30.00;26.90;;;;;;7404431;19;20014;-88
2022/07/15 14:33:00;;;;;;;5.97;1.25;;;30.00;25.90;;;;;;7403853;19;20611;-88
2022/07/15 14:35:29;;;;;;;2.00;0.90;;;29.90;26.50;;;;;;7401852;19;20031;-88
2022/07/15 14:37:58;;;;;;;3.88;0.93;;;30.00;26.80;;;;;;7399676;19;20031;-87
2022/07/15 14:40:29;;;;;;;2.88;1.25;;;30.10;26.90;;;;;;7400106;19;20070;-88
2022/07/15 14:42:58;;;;;;;2.92;1.00;;;30.20;26.90;;;;;;7401988;19;20019;-87
2022/07/15 14:45:27;;;;;;;8.10;1.20;;;30.40;26.40;;;;;;7400871;19;20042;-87
2022/07/15 14:47:56;;;;;;;4.00;1.23;;;30.40;26.40;;;;;;7401408;19;20027;-87
2022/07/15 14:50:25;;;;;;;2.38;1.00;;;30.30;25.90;;;;;;7404133;19;20090;-88
2022/07/15 14:52:54;;;;;;;1.98;1.00;;;30.10;26.20;;;;;;7405948;19;20023;-88
2022/07/15 14:55:22;;;;;;;7.78;1.20;;;30.20;26.50;;;;;;7405477;19;20014;-88
2022/07/15 14:57:54;;;;;;;4.57;1.15;;;30.20;25.90;;;;;;7400213;19;20345;-87
2022/07/15 15:00:23;;;;;;;2.47;1.20;;;30.20;25.60;;;;;;7401342;19;20450;-87
2022/07/15 15:02:52;;;;;;;3.05;1.23;;;30.20;25.70;;;;;;7400225;19;20026;-87
2022/07/15 15:05:21;;;;;;;2.97;1.00;;;30.20;25.70;;;;;;7403635;19;20031;-87
2022/07/15 15:07:50;;;;;;;1.33;1.08;;;30.30;26.10;;;;;;7406333;19;20029;-87
2022/07/15 15:10:19;;;;;;;3.47;1.00;;;30.40;25.60;;;;;;7400955;19;20010;-87
2022/07/15 15:12:47;;;;;;;2.47;1.00;;;30.40;25.90;;;;;;7401541;19;20035;-87
2022/07/15 15:15:19;;;;;;;3.05;1.23;;;30.60;26.20;;;;;;7405910;19;20011;-87